KSJC

San José International

Airport
ICAO code
KSJC
Summary
ICAO Region
NAM
ICAO Territory
Location

San Jose, Santa Clara, California,

Coordinates
37° 22' 0" N , 121° 55' 33" W
KCC
Metar
KSJC 151653Z 00000KT 10SM CLR 19/07 A3003 RMK AO2 SLP167 T01890072

Description

Norman Y. Mineta San Jose International Airport is a city-owned public-use airport serving the city of San Jose in Santa Clara County, California, United States.

Climatology

Dry-summer subtropical ”Mediterranean" climate (Köppen climate classification Csb) - characterized by warm, dry summers and mild winters. During the summer, rising hot air in California's interior valleys creates a low pressure area that draws winds from the North Pacific High through the Golden Gate, which creates the city's characteristic cool winds and fog. The fog is less pronounced in eastern neighborhoods and during the late summer and early fall, which is the warmest time of the year.

Runways

Designator Length Width Surface Rops
11/29 1402 30 ASP Yes/Yes
12L/30R 3353 46 CON Yes/Yes
12R/30L 3353 46 CON Yes/Yes

Airport map

Aerial View

SKYbrary Partners:

Safety knowledge contributed by: